METAR AND TAF INFORMATION

METAR FOR KSAN
ADDS - METARS form results

(1524 UTC 21 May 2022)
Data provider http://aviationweather.gov/metar/data/
 
METAR text: KSAN 211520Z 16007KT 10SM SCT012 BKN020 OVC040 16/12 A2995 RMK AO2 T01560122
Conditions at: KSAN (SAN DIEGO , CA, US) observed 1520 UTC 21 May 2022
Temperature: 15.6°C (60°F)
Dewpoint: 12.2°C (54°F) [RH = 80%]
Pressure (altimeter): 29.95 inches Hg (1014.3 mb)
Winds: from the SSE (160 degrees) at 8 MPH (7 knots; 3.6 m/s)
Visibility: 10 or more miles (16+ km)
Ceiling: 2000 feet AGL
Clouds: scattered clouds at 1200 feet AGL
broken clouds at 2000 feet AGL
overcast cloud deck at 4000 feet AGL
Weather: no significant weather observed at this time

METAR text: KSAN 211451Z 17006KT 10SM SCT012 OVC040 16/12 A2994 RMK AO2 SLP138 T01560122 53017
Conditions at: KSAN (SAN DIEGO , CA, US) observed 1451 UTC 21 May 2022
Temperature: 15.6°C (60°F)
Dewpoint: 12.2°C (54°F) [RH = 80%]
Pressure (altimeter): 29.94 inches Hg (1014.0 mb)
[Sea-level pressure: 1013.8 mb]
Winds: from the S (170 degrees) at 7 MPH (6 knots; 3.1 m/s)
Visibility: 10 or more miles (16+ km)
Ceiling: 4000 feet AGL
Clouds: scattered clouds at 1200 feet AGL
overcast cloud deck at 4000 feet AGL
Weather: no significant weather observed at this time

METAR text: KSAN 211438Z 17007KT 130V190 10SM SCT012 OVC040 16/12 A2993 RMK AO2 T01560122
Conditions at: KSAN (SAN DIEGO , CA, US) observed 1438 UTC 21 May 2022
Temperature: 15.6°C (60°F)
Dewpoint: 12.2°C (54°F) [RH = 80%]
Pressure (altimeter): 29.93 inches Hg (1013.6 mb)
Winds: from the S (170 degrees) at 8 MPH (7 knots; 3.6 m/s)
Visibility: 10 or more miles (16+ km)
Ceiling: 4000 feet AGL
Clouds: scattered clouds at 1200 feet AGL
overcast cloud deck at 4000 feet AGL
Weather: no significant weather observed at this time

Forecast for: KSAN (SAN DIEGO , CA, US)
Text: KSAN 211445Z 2115/2218 19008KT P6SM SCT015 OVC040
Forecast period: 1500 UTC 21 May 2022 to 0200 UTC 22 May 2022
Forecast type: FROM: standard forecast or significant change
Winds: from the S (190 degrees) at 9 MPH (8 knots; 4.1 m/s)
Visibility: 6 or more miles (10+ km)
Ceiling: 4000 feet AGL
Clouds: scattered clouds at 1500 feet AGL
overcast cloud deck at 4000 feet AGL
Weather: no significant weather forecast for this period
Text: TEMPO 2115/2118 BKN015
Forecast period: 1500 to 1800 UTC 21 May 2022
Forecast type: TEMPORARY: The following changes expected for less than half the time period
Visibility: missing
Ceiling: 1500 feet AGL
Clouds: broken clouds at 1500 feet AGL
Weather: no significant weather forecast for this period
Text: FM220200 19006KT P6SM BKN015 OVC025
Forecast period: 0200 to 1800 UTC 22 May 2022
Forecast type: FROM: standard forecast or significant change
Winds: from the S (190 degrees) at 7 MPH (6 knots; 3.1 m/s)
Visibility: 6 or more miles (10+ km)
Ceiling: 1500 feet AGL
Clouds: broken clouds at 1500 feet AGL
overcast cloud deck at 2500 feet AGL
Weather: no significant weather forecast for this period

 

AIRPORT MAP

 

RUNWAY INFORMATION

Runway 09 Runway length 9401 ft Runway width 200 ft
Runway elevation 14 ft Runway displaced threshold 700 ft Runway heading 106
Runway 27 Runway length 9401 ft Runway width 200 ft
Runway elevation 13 ft Runway displaced threshold 1810 ft Runway heading 286

 

AIRPORT FREQUENCIES

Type A/D Name SOCAL APP/ Frequency 119.6 MHZ
Type ATIS Name ATIS Frequency 134.8 MHZ
Type CLD Name CLNC DEL Frequency 125.9 MHZ
Type GND Name GND Frequency 123.9 MHZ
Type MISC Name CG Frequency 157.15 MHZ
Type MISC Name CG Frequency 898.4 MHZ
Type TWR Name LINDBERGH Frequency 118.3 MHZ
Type UNIC Name UNICOM Frequency 122.95 MHZ

 

AIRPORT NEAR NAVIGATION AIDS

Type NDB Name Boing Frequency 245 KHZ